createdAt,value
2024-02-28T00:01:29.832Z,45.88
2024-02-28T00:06:32.868Z,46.22
2024-02-28T00:11:37.850Z,45.40
2024-02-28T00:16:43.864Z,41.58
2024-02-28T00:21:46.934Z,43.90
2024-02-28T00:26:49.935Z,46.17
2024-02-28T00:31:54.345Z,48.75
2024-02-28T00:36:57.447Z,42.20
2024-02-28T00:42:00.352Z,45.47
2024-02-28T00:47:04.720Z,46.85
2024-02-28T00:52:08.082Z,47.78
2024-02-28T00:57:11.101Z,45.88
2024-02-28T01:02:15.435Z,47.25
2024-02-28T01:07:18.343Z,45.47
2024-02-28T01:12:21.521Z,43.78
2024-02-28T01:17:28.204Z,42.30
2024-02-28T01:22:31.257Z,41.22
2024-02-28T01:27:34.463Z,44.33
2024-02-28T01:32:39.388Z,39.70
2024-02-28T01:37:42.329Z,40.53
2024-02-28T01:42:45.400Z,42.25
2024-02-28T01:47:50.135Z,43.60
2024-02-28T01:52:55.698Z,40.75
2024-02-28T01:57:58.770Z,38.20
2024-02-28T02:03:06.403Z,37.90
2024-02-28T02:08:11.948Z,39.78
2024-02-28T02:13:14.917Z,41.85
2024-02-28T02:18:19.378Z,43.22
2024-02-28T02:23:23.807Z,41.38
2024-02-28T02:28:26.748Z,39.15
2024-02-28T02:33:29.591Z,39.63
2024-02-28T02:38:36.376Z,37.15
2024-02-28T02:43:39.331Z,40.42
2024-02-28T02:48:42.352Z,42.08
2024-02-28T02:53:46.674Z,32.92
2024-02-28T02:58:49.776Z,36.75
2024-02-28T03:03:53.857Z,36.15
2024-02-28T03:08:58.246Z,36.55
2024-02-28T03:14:01.135Z,37.30
2024-02-28T03:19:04.952Z,35.10
2024-02-28T03:24:09.533Z,35.67
2024-02-28T03:29:14.585Z,36.35
2024-02-28T03:34:17.495Z,35.78
2024-02-28T03:39:24.453Z,36.22
2024-02-28T03:44:27.390Z,33.97
2024-02-28T03:49:30.299Z,35.03
2024-02-28T03:54:34.769Z,34.53
2024-02-28T03:59:39.807Z,32.13
2024-02-28T04:04:45.528Z,34.15
2024-02-28T04:09:50.133Z,32.83
2024-02-28T04:14:55.257Z,32.35
2024-02-28T04:19:59.097Z,33.85
2024-02-28T04:25:03.730Z,35.42
2024-02-28T04:30:07.967Z,35.20
2024-02-28T04:35:10.974Z,34.88
2024-02-28T04:40:16.596Z,33.63
2024-02-28T04:45:19.768Z,38.47
2024-02-28T04:50:22.746Z,34.50
2024-02-28T04:55:27.049Z,37.47
2024-02-28T05:00:29.998Z,36.67
2024-02-28T05:05:32.927Z,37.40
2024-02-28T05:10:37.193Z,42.40
2024-02-28T05:15:40.346Z,38.78
2024-02-28T05:20:43.224Z,35.72
2024-02-28T05:25:49.093Z,38.50
2024-02-28T05:30:52.198Z,37.92
2024-02-28T05:35:55.292Z,36.88
2024-02-28T05:41:00.732Z,38.70
2024-02-28T05:46:03.818Z,40.05
2024-02-28T05:51:07.205Z,39.15
2024-02-28T05:56:15.650Z,38.60
2024-02-28T06:01:19.867Z,38.95
2024-02-28T06:06:23.639Z,39.28
2024-02-28T06:11:27.947Z,37.35
2024-02-28T06:16:30.857Z,35.17
2024-02-28T06:21:33.819Z,36.80
2024-02-28T06:26:40.957Z,36.33
2024-02-28T06:31:45.361Z,34.53
2024-02-28T06:36:48.380Z,31.23
2024-02-28T06:41:58.865Z,26.52
2024-02-28T06:47:03.052Z,28.63
2024-02-28T06:52:06.851Z,27.73
2024-02-28T06:57:12.518Z,28.42
2024-02-28T07:02:15.496Z,29.50
2024-02-28T07:07:18.388Z,28.35
2024-02-28T07:12:22.832Z,26.92
2024-02-28T07:17:27.711Z,27.20
2024-02-28T07:22:31.775Z,32.70
2024-02-28T07:27:36.016Z,25.85
2024-02-28T07:32:38.959Z,29.48
2024-02-28T07:37:41.869Z,25.63
2024-02-28T07:42:46.362Z,29.30
2024-02-28T07:47:50.658Z,30.15
2024-02-28T07:52:56.103Z,27.52
2024-02-28T07:58:00.625Z,30.02
2024-02-28T08:03:03.572Z,38.95
2024-02-28T08:08:07.077Z,33.95
2024-02-28T08:13:12.626Z,32.00
2024-02-28T08:18:16.296Z,36.88
2024-02-28T08:23:20.423Z,32.17
2024-02-28T08:28:24.787Z,36.90
2024-02-28T08:33:28.042Z,34.97
2024-02-28T08:38:31.313Z,40.47
2024-02-28T08:43:35.881Z,38.03
2024-02-28T08:48:39.229Z,37.90
2024-02-28T08:53:42.275Z,37.55
2024-02-28T08:58:46.974Z,39.72
2024-02-28T09:03:49.924Z,39.05
2024-02-28T09:08:52.903Z,35.88
2024-02-28T09:13:57.133Z,37.03
2024-02-28T09:19:00.060Z,33.90
2024-02-28T09:24:03.231Z,33.65
2024-02-28T09:29:07.462Z,40.40
2024-02-28T09:34:11.226Z,36.35
2024-02-28T09:39:15.984Z,32.80
2024-02-28T09:44:22.343Z,37.00
2024-02-28T09:49:28.870Z,34.08
2024-02-28T09:54:31.953Z,35.95
2024-02-28T09:59:47.037Z,37.20
2024-02-28T10:04:58.655Z,33.92
2024-02-28T10:10:01.705Z,30.95
2024-02-28T10:15:07.285Z,28.52
2024-02-28T10:20:11.468Z,31.75
2024-02-28T10:25:14.404Z,32.05
2024-02-28T10:30:18.985Z,32.60
2024-02-28T10:35:26.289Z,34.72
2024-02-28T10:40:30.238Z,33.20
2024-02-28T10:50:46.664Z,31.65
2024-02-28T10:55:50.872Z,31.65
2024-02-28T11:00:55.485Z,29.52
2024-02-28T11:05:58.565Z,29.13
2024-02-28T11:11:05.329Z,26.63
2024-02-28T11:16:14.065Z,25.13
2024-02-28T11:21:17.678Z,25.85
2024-02-28T11:26:21.677Z,26.35
2024-02-28T11:31:25.993Z,31.50
2024-02-28T11:36:29.613Z,29.50
2024-02-28T11:41:33.032Z,27.52
2024-02-28T11:46:37.586Z,29.40
2024-02-28T11:51:43.097Z,28.17
2024-02-28T11:56:46.871Z,29.50
2024-02-28T12:01:52.796Z,31.42
2024-02-28T12:06:56.018Z,29.88
2024-02-28T12:12:02.634Z,35.20
2024-02-28T12:17:07.060Z,29.42
2024-02-28T12:22:10.125Z,30.05
2024-02-28T12:27:13.163Z,28.30
2024-02-28T12:32:19.015Z,27.25
2024-02-28T12:37:21.981Z,27.83
2024-02-28T12:42:24.919Z,25.58
2024-02-28T12:47:31.718Z,27.13
2024-02-28T12:52:34.708Z,26.75
2024-02-28T12:57:40.400Z,28.73
2024-02-28T13:02:45.021Z,24.35
2024-02-28T13:07:47.867Z,31.30
2024-02-28T13:12:54.388Z,27.15
2024-02-28T13:18:09.748Z,23.35
2024-02-28T13:23:27.548Z,30.40
2024-02-28T13:28:36.585Z,25.67
2024-02-28T13:33:42.801Z,26.27
2024-02-28T13:38:46.068Z,23.30
2024-02-28T13:44:53.766Z,25.70
2024-02-28T13:50:17.187Z,24.88
2024-02-28T13:55:20.960Z,22.35
2024-02-28T14:00:24.970Z,22.30
2024-02-28T14:05:29.535Z,24.58
2024-02-28T14:10:32.727Z,26.20
2024-02-28T14:15:37.601Z,31.60
2024-02-28T14:20:43.517Z,24.40
2024-02-28T14:25:46.834Z,18.25
2024-02-28T14:30:50.937Z,19.38
2024-02-28T14:35:55.556Z,18.88
2024-02-28T14:40:58.568Z,19.58
2024-02-28T14:46:03.001Z,18.50
2024-02-28T14:51:07.796Z,21.23
2024-02-28T14:56:10.933Z,22.25
2024-02-28T15:01:14.114Z,23.35
2024-02-28T15:06:19.209Z,21.65
2024-02-28T15:11:22.396Z,23.58
2024-02-28T15:16:25.804Z,21.88
2024-02-28T15:21:30.207Z,22.20
2024-02-28T15:26:42.219Z,18.30
2024-02-28T15:31:49.292Z,22.75
2024-02-28T15:36:53.555Z,21.45
2024-02-28T15:41:56.588Z,22.27
2024-02-28T15:46:59.455Z,19.95
2024-02-28T15:52:04.412Z,19.85
2024-02-28T15:57:10.875Z,24.33
2024-02-28T16:02:13.821Z,24.73
2024-02-28T16:07:18.276Z,24.40
2024-02-28T16:12:21.677Z,28.67
2024-02-28T16:17:26.912Z,28.10
2024-02-28T16:22:31.552Z,34.08
2024-02-28T16:27:35.879Z,28.85
2024-02-28T16:32:39.521Z,35.85
2024-02-28T16:37:46.749Z,34.92
2024-02-28T16:42:52.605Z,34.92
2024-02-28T16:47:55.576Z,35.25
2024-02-28T16:52:59.962Z,38.28
2024-02-28T16:58:05.003Z,41.55
2024-02-28T17:03:08.161Z,37.58
2024-02-28T17:08:12.540Z,37.53
2024-02-28T17:13:15.574Z,36.83
2024-02-28T17:18:18.590Z,36.78
2024-02-28T17:23:25.379Z,39.20
2024-02-28T17:28:28.950Z,36.75
2024-02-28T17:33:32.029Z,37.08
2024-02-28T17:38:36.995Z,35.50
2024-02-28T17:43:39.996Z,42.60
2024-02-28T17:48:44.633Z,37.78
2024-02-28T17:53:48.968Z,36.10
2024-02-28T17:58:51.848Z,39.60
2024-02-28T18:03:54.760Z,40.85
2024-02-28T18:08:59.477Z,37.13
2024-02-28T18:14:02.371Z,38.28
2024-02-28T18:19:05.778Z,41.08
2024-02-28T18:24:10.331Z,37.28
2024-02-28T18:29:13.425Z,45.90
2024-02-28T18:34:16.595Z,43.17
2024-02-28T18:39:20.943Z,40.58
2024-02-28T18:44:23.958Z,40.63
2024-02-28T18:49:27.211Z,37.78
2024-02-28T18:54:31.842Z,37.70
2024-02-28T18:59:36.031Z,37.65
2024-02-28T19:04:40.212Z,42.25
2024-02-28T19:09:44.946Z,39.55
2024-02-28T19:14:48.247Z,38.28
2024-02-28T19:20:08.275Z,52.80
2024-02-28T19:25:12.747Z,45.13
2024-02-28T19:30:15.827Z,35.92
2024-02-28T19:35:18.763Z,37.70
2024-02-28T19:40:23.082Z,34.38
2024-02-28T19:45:26.135Z,38.78
2024-02-28T19:50:29.165Z,39.85
2024-02-28T19:55:33.447Z,35.28
2024-02-28T20:00:37.036Z,30.17
2024-02-28T20:05:40.977Z,32.38
2024-02-28T20:10:45.678Z,34.90
2024-02-28T20:15:48.669Z,29.52
2024-02-28T20:20:51.853Z,30.30
2024-02-28T20:25:56.380Z,34.35
2024-02-28T20:30:59.410Z,34.60
2024-02-28T20:36:04.737Z,36.03
2024-02-28T20:41:09.056Z,33.03
2024-02-28T20:46:12.015Z,35.72
2024-02-28T20:51:15.017Z,35.15
2024-02-28T20:56:19.948Z,42.35
2024-02-28T21:01:25.327Z,39.83
2024-02-28T21:06:30.314Z,38.30
2024-02-28T21:11:37.356Z,41.15
2024-02-28T21:16:40.327Z,41.55
2024-02-28T21:21:43.502Z,43.72
2024-02-28T21:26:49.556Z,43.15
2024-02-28T21:31:52.562Z,47.65
2024-02-28T21:36:55.580Z,48.42
2024-02-28T21:42:00.094Z,47.10
2024-02-28T21:47:03.268Z,46.95
2024-02-28T21:52:06.322Z,46.88
2024-02-28T21:57:12.130Z,50.22
2024-02-28T22:02:15.091Z,45.22
2024-02-28T22:07:18.062Z,48.22
2024-02-28T22:12:22.387Z,44.13
2024-02-28T22:17:25.268Z,47.00
2024-02-28T22:22:29.957Z,46.35
2024-02-28T22:27:34.248Z,53.70
2024-02-28T22:32:37.166Z,50.40
2024-02-28T22:37:40.079Z,54.30
2024-02-28T22:42:44.684Z,54.08
2024-02-28T22:47:47.598Z,53.55
2024-02-28T22:52:50.510Z,51.72
2024-02-28T22:57:54.897Z,52.17
2024-02-28T23:03:00.042Z,54.35
2024-02-28T23:08:03.721Z,48.03
2024-02-28T23:13:08.538Z,48.30
2024-02-28T23:18:11.992Z,51.33
2024-02-28T23:23:14.991Z,52.60
2024-02-28T23:28:19.209Z,53.58
2024-02-28T23:33:22.343Z,51.40
2024-02-28T23:38:25.187Z,47.28
2024-02-28T23:43:29.406Z,48.50
2024-02-28T23:48:32.308Z,52.13
2024-02-28T23:53:35.235Z,47.30
2024-02-28T23:58:39.548Z,51.83
